sensor_id;sensor_type;location;lat;lon;timestamp;P1;P2;P0
65973;PMS5003;52729;54.906;73.316;2022-08-01T00:02:27;27.00;24.00;11.00
65973;PMS5003;52729;54.906;73.316;2022-08-01T00:05:28;23.25;20.50;8.00
65973;PMS5003;52729;54.906;73.316;2022-08-01T00:08:29;23.00;21.00;8.00
65973;PMS5003;52729;54.906;73.316;2022-08-01T00:11:30;22.00;20.00;8.00
65973;PMS5003;52729;54.906;73.316;2022-08-01T00:14:31;23.00;21.50;9.25
65973;PMS5003;52729;54.906;73.316;2022-08-01T00:17:32;21.00;20.00;8.00
65973;PMS5003;52729;54.906;73.316;2022-08-01T00:20:33;20.50;18.25;7.00
65973;PMS5003;52729;54.906;73.316;2022-08-01T00:23:35;23.50;21.50;9.00
65973;PMS5003;52729;54.906;73.316;2022-08-01T00:26:45;22.00;21.00;8.00
65973;PMS5003;52729;54.906;73.316;2022-08-01T00:29:51;21.25;20.00;8.00
65973;PMS5003;52729;54.906;73.316;2022-08-01T00:32:52;21.75;20.00;8.00
65973;PMS5003;52729;54.906;73.316;2022-08-01T00:35:53;20.50;19.25;9.00
65973;PMS5003;52729;54.906;73.316;2022-08-01T00:38:55;21.50;20.00;8.00
65973;PMS5003;52729;54.906;73.316;2022-08-01T00:41:56;23.75;19.75;9.00
65973;PMS5003;52729;54.906;73.316;2022-08-01T00:44:57;23.25;21.00;10.00
65973;PMS5003;52729;54.906;73.316;2022-08-01T00:47:58;21.50;19.75;9.50
65973;PMS5003;52729;54.906;73.316;2022-08-01T00:50:59;22.00;18.50;7.50
65973;PMS5003;52729;54.906;73.316;2022-08-01T00:54:00;22.00;20.00;8.50
65973;PMS5003;52729;54.906;73.316;2022-08-01T00:57:02;24.00;22.25;10.50
65973;PMS5003;52729;54.906;73.316;2022-08-01T01:00:04;26.00;23.50;10.00
65973;PMS5003;52729;54.906;73.316;2022-08-01T01:03:05;23.00;21.00;9.25
65973;PMS5003;52729;54.906;73.316;2022-08-01T01:12:42;24.00;21.00;8.25
65973;PMS5003;52729;54.906;73.316;2022-08-01T01:15:47;23.75;21.75;10.00
65973;PMS5003;52729;54.906;73.316;2022-08-01T01:18:54;18.50;18.50;7.00
65973;PMS5003;52729;54.906;73.316;2022-08-01T01:22:13;22.00;20.75;9.75
65973;PMS5003;52729;54.906;73.316;2022-08-01T01:31:26;22.75;20.75;9.00
65973;PMS5003;52729;54.906;73.316;2022-08-01T01:34:28;22.25;20.50;10.00
65973;PMS5003;52729;54.906;73.316;2022-08-01T01:37:32;20.75;20.50;9.00
65973;PMS5003;52729;54.906;73.316;2022-08-01T01:40:34;20.00;19.00;8.00
65973;PMS5003;52729;54.906;73.316;2022-08-01T01:43:47;20.75;18.50;9.00
65973;PMS5003;52729;54.906;73.316;2022-08-01T01:46:48;22.75;20.00;7.50
65973;PMS5003;52729;54.906;73.316;2022-08-01T01:49:50;22.00;19.00;9.50
65973;PMS5003;52729;54.906;73.316;2022-08-01T01:52:53;24.00;21.00;10.00
65973;PMS5003;52729;54.906;73.316;2022-08-01T01:55:55;25.00;23.25;10.75
65973;PMS5003;52729;54.906;73.316;2022-08-01T01:59:00;21.50;20.50;9.75
65973;PMS5003;52729;54.906;73.316;2022-08-01T02:02:03;23.25;22.00;9.50
65973;PMS5003;52729;54.906;73.316;2022-08-01T02:05:14;26.50;23.75;10.25
65973;PMS5003;52729;54.906;73.316;2022-08-01T02:08:16;25.00;25.00;11.00
65973;PMS5003;52729;54.906;73.316;2022-08-01T02:11:18;23.00;23.00;10.00
65973;PMS5003;52729;54.906;73.316;2022-08-01T02:14:19;23.50;22.25;10.75
65973;PMS5003;52729;54.906;73.316;2022-08-01T02:17:20;22.00;19.75;9.50
65973;PMS5003;52729;54.906;73.316;2022-08-01T02:20:24;23.25;22.25;9.75
65973;PMS5003;52729;54.906;73.316;2022-08-01T02:23:28;23.75;22.75;11.00
65973;PMS5003;52729;54.906;73.316;2022-08-01T02:26:32;19.00;18.50;7.75
65973;PMS5003;52729;54.906;73.316;2022-08-01T02:29:37;22.50;20.00;9.00
65973;PMS5003;52729;54.906;73.316;2022-08-01T02:32:51;25.50;22.50;10.25
65973;PMS5003;52729;54.906;73.316;2022-08-01T02:35:54;24.25;22.50;10.25
65973;PMS5003;52729;54.906;73.316;2022-08-01T02:38:57;22.50;21.50;9.00
65973;PMS5003;52729;54.906;73.316;2022-08-01T02:42:00;21.50;21.25;10.50
65973;PMS5003;52729;54.906;73.316;2022-08-01T02:45:04;25.50;24.00;12.75
65973;PMS5003;52729;54.906;73.316;2022-08-01T02:48:09;25.00;24.00;12.00
65973;PMS5003;52729;54.906;73.316;2022-08-01T02:51:10;23.25;21.50;10.50
65973;PMS5003;52729;54.906;73.316;2022-08-01T02:54:13;25.25;22.50;11.00
65973;PMS5003;52729;54.906;73.316;2022-08-01T02:57:16;24.00;23.50;10.00
65973;PMS5003;52729;54.906;73.316;2022-08-01T03:00:18;21.00;21.00;8.00
65973;PMS5003;52729;54.906;73.316;2022-08-01T03:03:24;25.25;24.50;11.50
65973;PMS5003;52729;54.906;73.316;2022-08-01T03:06:26;22.00;22.00;9.00
65973;PMS5003;52729;54.906;73.316;2022-08-01T03:09:28;23.00;22.00;10.25
65973;PMS5003;52729;54.906;73.316;2022-08-01T03:12:30;22.75;22.75;9.75
65973;PMS5003;52729;54.906;73.316;2022-08-01T03:15:35;25.50;25.00;11.00
65973;PMS5003;52729;54.906;73.316;2022-08-01T03:18:47;24.75;23.50;12.50
65973;PMS5003;52729;54.906;73.316;2022-08-01T03:21:49;26.00;22.00;12.00
65973;PMS5003;52729;54.906;73.316;2022-08-01T03:24:51;25.50;25.50;13.75
65973;PMS5003;52729;54.906;73.316;2022-08-01T03:28:03;29.00;28.00;16.50
65973;PMS5003;52729;54.906;73.316;2022-08-01T03:31:15;25.00;22.00;14.50
65973;PMS5003;52729;54.906;73.316;2022-08-01T03:34:17;25.00;24.75;14.00
65973;PMS5003;52729;54.906;73.316;2022-08-01T03:37:25;29.00;27.75;15.00
65973;PMS5003;52729;54.906;73.316;2022-08-01T03:40:37;28.50;27.00;14.00
65973;PMS5003;52729;54.906;73.316;2022-08-01T03:43:51;30.25;28.25;14.00
65973;PMS5003;52729;54.906;73.316;2022-08-01T03:47:02;30.00;28.00;15.50
65973;PMS5003;52729;54.906;73.316;2022-08-01T03:50:05;29.00;26.75;16.00
65973;PMS5003;52729;54.906;73.316;2022-08-01T03:53:07;29.50;25.50;14.25
65973;PMS5003;52729;54.906;73.316;2022-08-01T03:56:10;30.00;27.75;16.00
65973;PMS5003;52729;54.906;73.316;2022-08-01T03:59:12;28.00;28.00;17.00
65973;PMS5003;52729;54.906;73.316;2022-08-01T04:02:15;29.00;28.00;17.00
65973;PMS5003;52729;54.906;73.316;2022-08-01T04:05:21;29.50;28.50;18.00
65973;PMS5003;52729;54.906;73.316;2022-08-01T04:08:38;30.25;28.00;18.00
65973;PMS5003;52729;54.906;73.316;2022-08-01T04:11:39;30.25;29.00;18.00
65973;PMS5003;52729;54.906;73.316;2022-08-01T04:14:47;29.50;28.50;17.00
65973;PMS5003;52729;54.906;73.316;2022-08-01T04:17:59;30.25;28.50;17.00
65973;PMS5003;52729;54.906;73.316;2022-08-01T04:21:00;32.00;29.50;18.00
65973;PMS5003;52729;54.906;73.316;2022-08-01T04:24:11;33.50;30.00;15.50
65973;PMS5003;52729;54.906;73.316;2022-08-01T04:27:14;34.00;30.50;18.50
65973;PMS5003;52729;54.906;73.316;2022-08-01T04:30:19;33.00;30.75;18.50
65973;PMS5003;52729;54.906;73.316;2022-08-01T04:33:23;37.50;33.50;19.00
65973;PMS5003;52729;54.906;73.316;2022-08-01T04:36:26;35.25;31.00;19.00
65973;PMS5003;52729;54.906;73.316;2022-08-01T04:39:30;38.75;33.50;20.00
65973;PMS5003;52729;54.906;73.316;2022-08-01T04:42:32;38.75;34.00;20.00
65973;PMS5003;52729;54.906;73.316;2022-08-01T04:45:34;41.75;35.00;21.00
65973;PMS5003;52729;54.906;73.316;2022-08-01T04:48:48;36.50;31.75;19.75
65973;PMS5003;52729;54.906;73.316;2022-08-01T04:51:52;34.50;31.25;19.00
65973;PMS5003;52729;54.906;73.316;2022-08-01T04:55:07;36.50;32.00;19.00
65973;PMS5003;52729;54.906;73.316;2022-08-01T04:58:09;37.50;31.50;19.75
65973;PMS5003;52729;54.906;73.316;2022-08-01T05:01:11;36.25;31.00;19.00
65973;PMS5003;52729;54.906;73.316;2022-08-01T05:04:12;36.50;33.00;20.00
65973;PMS5003;52729;54.906;73.316;2022-08-01T05:07:13;37.00;31.00;19.00
65973;PMS5003;52729;54.906;73.316;2022-08-01T05:10:16;34.50;30.00;18.50
65973;PMS5003;52729;54.906;73.316;2022-08-01T05:13:17;36.50;31.00;19.00
65973;PMS5003;52729;54.906;73.316;2022-08-01T05:16:18;32.00;28.00;17.00
65973;PMS5003;52729;54.906;73.316;2022-08-01T05:19:19;35.75;31.00;18.25
65973;PMS5003;52729;54.906;73.316;2022-08-01T05:22:21;30.75;28.00;17.00
65973;PMS5003;52729;54.906;73.316;2022-08-01T05:25:23;36.00;31.00;19.00
65973;PMS5003;52729;54.906;73.316;2022-08-01T05:28:36;32.25;28.50;16.50
65973;PMS5003;52729;54.906;73.316;2022-08-01T05:31:37;33.50;28.00;16.50
65973;PMS5003;52729;54.906;73.316;2022-08-01T05:34:48;33.00;30.00;16.00
65973;PMS5003;52729;54.906;73.316;2022-08-01T05:37:49;30.25;28.00;17.00
65973;PMS5003;52729;54.906;73.316;2022-08-01T05:40:50;36.00;31.00;18.25
65973;PMS5003;52729;54.906;73.316;2022-08-01T05:43:51;32.50;28.00;17.75
65973;PMS5003;52729;54.906;73.316;2022-08-01T05:46:53;30.75;28.50;19.00
65973;PMS5003;52729;54.906;73.316;2022-08-01T05:49:54;32.00;29.00;17.00
65973;PMS5003;52729;54.906;73.316;2022-08-01T05:52:55;31.50;29.00;18.00
65973;PMS5003;52729;54.906;73.316;2022-08-01T05:56:05;29.75;28.50;17.50
65973;PMS5003;52729;54.906;73.316;2022-08-01T05:59:16;33.75;31.25;17.25
65973;PMS5003;52729;54.906;73.316;2022-08-01T06:02:17;31.00;30.00;17.00
65973;PMS5003;52729;54.906;73.316;2022-08-01T06:05:28;29.00;27.75;16.50
65973;PMS5003;52729;54.906;73.316;2022-08-01T06:08:29;33.25;28.50;18.25
65973;PMS5003;52729;54.906;73.316;2022-08-01T06:11:30;33.00;28.50;19.00
65973;PMS5003;52729;54.906;73.316;2022-08-01T06:14:31;32.00;30.00;18.50
65973;PMS5003;52729;54.906;73.316;2022-08-01T06:17:33;36.50;31.25;18.50
65973;PMS5003;52729;54.906;73.316;2022-08-01T06:20:43;32.50;30.50;17.00
65973;PMS5003;52729;54.906;73.316;2022-08-01T06:23:44;31.00;29.25;16.50
65973;PMS5003;52729;54.906;73.316;2022-08-01T06:26:45;29.00;28.00;17.25
65973;PMS5003;52729;54.906;73.316;2022-08-01T06:29:47;31.00;29.00;18.00
65973;PMS5003;52729;54.906;73.316;2022-08-01T06:32:49;26.00;26.00;17.00
65973;PMS5003;52729;54.906;73.316;2022-08-01T06:35:50;31.50;29.50;18.50
65973;PMS5003;52729;54.906;73.316;2022-08-01T06:38:51;34.50;30.50;18.75
65973;PMS5003;52729;54.906;73.316;2022-08-01T06:41:52;34.75;31.00;18.00
65973;PMS5003;52729;54.906;73.316;2022-08-01T06:44:53;34.50;30.00;18.00
65973;PMS5003;52729;54.906;73.316;2022-08-01T06:48:00;28.50;28.00;16.50
65973;PMS5003;52729;54.906;73.316;2022-08-01T06:51:01;27.25;26.50;14.25
65973;PMS5003;52729;54.906;73.316;2022-08-01T06:54:15;29.50;28.00;16.00
65973;PMS5003;52729;54.906;73.316;2022-08-01T06:57:17;30.50;28.50;16.00
65973;PMS5003;52729;54.906;73.316;2022-08-01T07:00:23;28.50;27.00;15.00
65973;PMS5003;52729;54.906;73.316;2022-08-01T07:03:24;27.50;23.75;13.00
65973;PMS5003;52729;54.906;73.316;2022-08-01T07:06:26;29.00;27.75;14.50
65973;PMS5003;52729;54.906;73.316;2022-08-01T07:09:36;31.50;29.00;17.00
65973;PMS5003;52729;54.906;73.316;2022-08-01T07:12:37;29.50;27.00;15.00
65973;PMS5003;52729;54.906;73.316;2022-08-01T07:15:40;31.75;28.00;16.00
65973;PMS5003;52729;54.906;73.316;2022-08-01T07:18:48;31.00;28.00;15.00
65973;PMS5003;52729;54.906;73.316;2022-08-01T07:21:49;30.25;28.00;15.50
65973;PMS5003;52729;54.906;73.316;2022-08-01T07:25:00;28.00;28.00;15.75
65973;PMS5003;52729;54.906;73.316;2022-08-01T07:28:01;27.75;27.00;15.00
65973;PMS5003;52729;54.906;73.316;2022-08-01T07:31:02;30.00;28.00;15.00
65973;PMS5003;52729;54.906;73.316;2022-08-01T07:34:04;29.00;27.00;15.00
65973;PMS5003;52729;54.906;73.316;2022-08-01T07:37:13;28.00;27.00;15.00
65973;PMS5003;52729;54.906;73.316;2022-08-01T07:40:22;28.00;26.00;14.00
65973;PMS5003;52729;54.906;73.316;2022-08-01T07:43:23;25.25;23.50;12.00
65973;PMS5003;52729;54.906;73.316;2022-08-01T07:46:24;23.50;22.50;9.25
65973;PMS5003;52729;54.906;73.316;2022-08-01T07:49:34;22.25;22.00;11.00
65973;PMS5003;52729;54.906;73.316;2022-08-01T07:52:35;26.75;26.75;12.25
65973;PMS5003;52729;54.906;73.316;2022-08-01T07:55:37;25.50;24.00;12.00
65973;PMS5003;52729;54.906;73.316;2022-08-01T07:58:40;23.50;22.50;9.25
65973;PMS5003;52729;54.906;73.316;2022-08-01T08:01:41;22.00;21.00;10.00
65973;PMS5003;52729;54.906;73.316;2022-08-01T08:04:53;19.50;19.50;9.75
65973;PMS5003;52729;54.906;73.316;2022-08-01T08:07:54;24.00;23.00;12.00
65973;PMS5003;52729;54.906;73.316;2022-08-01T08:10:55;22.00;20.25;10.00
65973;PMS5003;52729;54.906;73.316;2022-08-01T08:14:06;22.50;22.50;10.00
65973;PMS5003;52729;54.906;73.316;2022-08-01T08:17:13;22.00;22.00;11.00
65973;PMS5003;52729;54.906;73.316;2022-08-01T08:20:23;21.50;19.50;9.00
65973;PMS5003;52729;54.906;73.316;2022-08-01T08:23:28;22.00;20.00;9.75
65973;PMS5003;52729;54.906;73.316;2022-08-01T08:26:47;21.00;21.00;9.00
65973;PMS5003;52729;54.906;73.316;2022-08-01T08:29:48;20.75;20.00;7.50
65973;PMS5003;52729;54.906;73.316;2022-08-01T08:32:49;20.50;19.50;7.50
65973;PMS5003;52729;54.906;73.316;2022-08-01T08:35:50;21.00;20.00;9.00
65973;PMS5003;52729;54.906;73.316;2022-08-01T08:39:02;19.25;17.75;8.00
65973;PMS5003;52729;54.906;73.316;2022-08-01T08:42:06;18.50;18.50;7.00
65973;PMS5003;52729;54.906;73.316;2022-08-01T08:45:08;20.00;19.00;9.00
65973;PMS5003;52729;54.906;73.316;2022-08-01T08:48:09;14.00;14.00;4.25
65973;PMS5003;52729;54.906;73.316;2022-08-01T08:51:16;11.25;11.25;4.00
65973;PMS5003;52729;54.906;73.316;2022-08-01T08:54:19;7.50;7.50;3.00
65973;PMS5003;52729;54.906;73.316;2022-08-01T08:57:21;7.25;7.00;3.00
65973;PMS5003;52729;54.906;73.316;2022-08-01T09:00:22;12.00;10.50;4.00
65973;PMS5003;52729;54.906;73.316;2022-08-01T09:03:23;10.25;9.00;4.00
65973;PMS5003;52729;54.906;73.316;2022-08-01T09:06:24;6.50;6.50;2.00
65973;PMS5003;52729;54.906;73.316;2022-08-01T09:09:25;9.00;8.00;3.00
65973;PMS5003;52729;54.906;73.316;2022-08-01T09:12:26;6.00;6.00;3.00
65973;PMS5003;52729;54.906;73.316;2022-08-01T09:15:49;7.00;6.75;2.00
65973;PMS5003;52729;54.906;73.316;2022-08-01T09:19:08;6.00;5.75;1.75
65973;PMS5003;52729;54.906;73.316;2022-08-01T09:22:15;7.25;7.25;3.00
65973;PMS5003;52729;54.906;73.316;2022-08-01T09:25:18;6.00;6.00;3.00
65973;PMS5003;52729;54.906;73.316;2022-08-01T09:28:26;7.00;7.00;3.00
65973;PMS5003;52729;54.906;73.316;2022-08-01T09:31:42;8.00;7.50;3.00
65973;PMS5003;52729;54.906;73.316;2022-08-01T09:34:43;6.00;6.00;3.00
65973;PMS5003;52729;54.906;73.316;2022-08-01T09:37:44;5.00;4.25;2.00
65973;PMS5003;52729;54.906;73.316;2022-08-01T09:40:46;8.00;8.00;2.50
65973;PMS5003;52729;54.906;73.316;2022-08-01T09:43:58;5.25;5.00;2.00
65973;PMS5003;52729;54.906;73.316;2022-08-01T09:46:59;5.00;4.00;1.75
65973;PMS5003;52729;54.906;73.316;2022-08-01T09:50:00;5.25;5.25;2.00
65973;PMS5003;52729;54.906;73.316;2022-08-01T09:53:01;6.00;6.00;1.75
65973;PMS5003;52729;54.906;73.316;2022-08-01T09:56:09;6.00;5.50;0.00
65973;PMS5003;52729;54.906;73.316;2022-08-01T09:59:11;6.00;6.00;1.00
65973;PMS5003;52729;54.906;73.316;2022-08-01T10:02:13;6.75;6.50;3.50
65973;PMS5003;52729;54.906;73.316;2022-08-01T10:05:15;5.00;5.00;2.25
65973;PMS5003;52729;54.906;73.316;2022-08-01T10:08:17;4.00;4.00;2.00
65973;PMS5003;52729;54.906;73.316;2022-08-01T10:11:30;9.50;9.50;4.00
65973;PMS5003;52729;54.906;73.316;2022-08-01T10:14:33;7.75;7.50;4.00
65973;PMS5003;52729;54.906;73.316;2022-08-01T10:17:34;7.00;7.00;4.00
65973;PMS5003;52729;54.906;73.316;2022-08-01T10:20:39;6.00;5.00;1.00
65973;PMS5003;52729;54.906;73.316;2022-08-01T10:23:40;2.00;2.00;0.00
65973;PMS5003;52729;54.906;73.316;2022-08-01T10:26:55;3.00;3.00;0.00
65973;PMS5003;52729;54.906;73.316;2022-08-01T10:29:59;2.75;1.00;0.00
65973;PMS5003;52729;54.906;73.316;2022-08-01T10:33:09;3.00;2.00;0.00
65973;PMS5003;52729;54.906;73.316;2022-08-01T10:36:11;2.00;1.00;0.00
65973;PMS5003;52729;54.906;73.316;2022-08-01T10:39:26;2.00;2.00;0.00
65973;PMS5003;52729;54.906;73.316;2022-08-01T10:42:30;1.00;1.00;0.00
65973;PMS5003;52729;54.906;73.316;2022-08-01T10:45:31;4.00;2.00;0.50
65973;PMS5003;52729;54.906;73.316;2022-08-01T10:48:51;1.00;1.00;0.00
65973;PMS5003;52729;54.906;73.316;2022-08-01T10:51:55;1.75;1.75;0.00
65973;PMS5003;52729;54.906;73.316;2022-08-01T10:55:04;3.25;2.25;0.00
65973;PMS5003;52729;54.906;73.316;2022-08-01T11:01:30;3.00;3.00;0.00
65973;PMS5003;52729;54.906;73.316;2022-08-01T11:04:34;3.75;3.75;0.00
65973;PMS5003;52729;54.906;73.316;2022-08-01T11:07:48;2.00;2.00;0.00
65973;PMS5003;52729;54.906;73.316;2022-08-01T11:10:49;2.50;2.50;0.00
65973;PMS5003;52729;54.906;73.316;2022-08-01T11:20:29;2.00;2.00;0.00
65973;PMS5003;52729;54.906;73.316;2022-08-01T11:23:39;1.00;1.00;0.00
65973;PMS5003;52729;54.906;73.316;2022-08-01T11:33:53;21.25;20.50;12.50
65973;PMS5003;52729;54.906;73.316;2022-08-01T11:36:48;9.50;9.50;3.25
65973;PMS5003;52729;54.906;73.316;2022-08-01T11:46:19;0.00;0.00;0.00
65973;PMS5003;52729;54.906;73.316;2022-08-01T11:52:38;0.00;0.00;0.00
65973;PMS5003;52729;54.906;73.316;2022-08-01T11:55:45;0.00;0.00;0.00
65973;PMS5003;52729;54.906;73.316;2022-08-01T11:58:48;0.00;0.00;0.00
65973;PMS5003;52729;54.906;73.316;2022-08-01T12:01:50;0.00;0.00;0.00
65973;PMS5003;52729;54.906;73.316;2022-08-01T12:04:58;0.00;0.00;0.00
65973;PMS5003;52729;54.906;73.316;2022-08-01T12:08:00;0.00;0.00;0.00
65973;PMS5003;52729;54.906;73.316;2022-08-01T12:11:03;0.00;0.00;0.00
65973;PMS5003;52729;54.906;73.316;2022-08-01T12:14:04;0.00;0.00;0.00
65973;PMS5003;52729;54.906;73.316;2022-08-01T12:17:07;0.00;0.00;0.00
65973;PMS5003;52729;54.906;73.316;2022-08-01T12:20:09;1.50;0.50;0.00
65973;PMS5003;52729;54.906;73.316;2022-08-01T12:23:14;0.00;0.00;0.00
65973;PMS5003;52729;54.906;73.316;2022-08-01T12:26:19;0.00;0.00;0.00
65973;PMS5003;52729;54.906;73.316;2022-08-01T12:29:34;0.00;0.00;0.00
65973;PMS5003;52729;54.906;73.316;2022-08-01T12:32:37;0.50;0.00;0.00
65973;PMS5003;52729;54.906;73.316;2022-08-01T12:35:40;0.00;0.00;0.00
65973;PMS5003;52729;54.906;73.316;2022-08-01T12:38:42;0.00;0.00;0.00
65973;PMS5003;52729;54.906;73.316;2022-08-01T12:41:43;0.00;0.00;0.00
65973;PMS5003;52729;54.906;73.316;2022-08-01T12:44:47;0.00;0.00;0.00
65973;PMS5003;52729;54.906;73.316;2022-08-01T12:47:51;0.00;0.00;0.00
65973;PMS5003;52729;54.906;73.316;2022-08-01T12:50:53;0.00;0.00;0.00
65973;PMS5003;52729;54.906;73.316;2022-08-01T12:53:58;0.00;0.00;0.00
65973;PMS5003;52729;54.906;73.316;2022-08-01T12:57:00;1.00;0.00;0.00
65973;PMS5003;52729;54.906;73.316;2022-08-01T13:00:12;0.00;0.00;0.00
65973;PMS5003;52729;54.906;73.316;2022-08-01T13:03:14;0.00;0.00;0.00
65973;PMS5003;52729;54.906;73.316;2022-08-01T13:06:15;0.00;0.00;0.00
65973;PMS5003;52729;54.906;73.316;2022-08-01T13:09:17;0.00;0.00;0.00
65973;PMS5003;52729;54.906;73.316;2022-08-01T13:12:28;0.00;0.00;0.00
65973;PMS5003;52729;54.906;73.316;2022-08-01T13:15:30;0.00;0.00;0.00
65973;PMS5003;52729;54.906;73.316;2022-08-01T13:18:33;0.00;0.00;0.00
65973;PMS5003;52729;54.906;73.316;2022-08-01T13:21:39;0.00;0.00;0.00
65973;PMS5003;52729;54.906;73.316;2022-08-01T13:24:53;0.00;0.00;0.00
65973;PMS5003;52729;54.906;73.316;2022-08-01T13:28:42;0.00;0.00;0.00
65973;PMS5003;52729;54.906;73.316;2022-08-01T13:31:48;0.00;0.00;0.00
65973;PMS5003;52729;54.906;73.316;2022-08-01T13:34:49;0.00;0.00;0.00
65973;PMS5003;52729;54.906;73.316;2022-08-01T13:38:00;0.00;0.00;0.00
65973;PMS5003;52729;54.906;73.316;2022-08-01T13:41:02;0.50;0.00;0.00
65973;PMS5003;52729;54.906;73.316;2022-08-01T13:44:04;0.00;0.00;0.00
65973;PMS5003;52729;54.906;73.316;2022-08-01T13:47:05;0.00;0.00;0.00
65973;PMS5003;52729;54.906;73.316;2022-08-01T13:50:06;0.00;0.00;0.00
65973;PMS5003;52729;54.906;73.316;2022-08-01T13:53:11;0.00;0.00;0.00
65973;PMS5003;52729;54.906;73.316;2022-08-01T13:56:22;0.00;0.00;0.00
65973;PMS5003;52729;54.906;73.316;2022-08-01T13:59:24;0.25;0.00;0.00
65973;PMS5003;52729;54.906;73.316;2022-08-01T14:02:30;0.00;0.00;0.00
65973;PMS5003;52729;54.906;73.316;2022-08-01T14:05:41;0.50;0.00;0.00
65973;PMS5003;52729;54.906;73.316;2022-08-01T14:08:43;7.75;5.00;2.00
65973;PMS5003;52729;54.906;73.316;2022-08-01T14:11:54;1.25;1.25;1.00
65973;PMS5003;52729;54.906;73.316;2022-08-01T14:14:55;0.00;0.00;0.00
65973;PMS5003;52729;54.906;73.316;2022-08-01T14:18:07;0.00;0.00;0.00
65973;PMS5003;52729;54.906;73.316;2022-08-01T14:21:09;0.00;0.00;0.00
65973;PMS5003;52729;54.906;73.316;2022-08-01T14:24:10;0.00;0.00;0.00
65973;PMS5003;52729;54.906;73.316;2022-08-01T14:27:11;0.00;0.00;0.00
65973;PMS5003;52729;54.906;73.316;2022-08-01T14:30:12;0.00;0.00;0.00
65973;PMS5003;52729;54.906;73.316;2022-08-01T14:33:13;0.00;0.00;0.00
65973;PMS5003;52729;54.906;73.316;2022-08-01T14:36:14;0.25;0.25;0.00
65973;PMS5003;52729;54.906;73.316;2022-08-01T14:39:15;0.00;0.00;0.00
65973;PMS5003;52729;54.906;73.316;2022-08-01T14:42:17;0.00;0.00;0.00
65973;PMS5003;52729;54.906;73.316;2022-08-01T14:45:23;0.00;0.00;0.00
65973;PMS5003;52729;54.906;73.316;2022-08-01T14:48:24;0.00;0.00;0.00
65973;PMS5003;52729;54.906;73.316;2022-08-01T14:51:35;0.00;0.00;0.00
65973;PMS5003;52729;54.906;73.316;2022-08-01T14:54:38;0.00;0.00;0.00
65973;PMS5003;52729;54.906;73.316;2022-08-01T14:57:39;1.00;0.00;0.00
65973;PMS5003;52729;54.906;73.316;2022-08-01T15:00:41;1.00;0.00;0.00
65973;PMS5003;52729;54.906;73.316;2022-08-01T15:03:42;0.50;0.50;0.00
65973;PMS5003;52729;54.906;73.316;2022-08-01T15:06:44;0.00;0.00;0.00
65973;PMS5003;52729;54.906;73.316;2022-08-01T15:09:50;16.25;14.25;6.25
65973;PMS5003;52729;54.906;73.316;2022-08-01T15:12:51;24.25;22.50;8.75
65973;PMS5003;52729;54.906;73.316;2022-08-01T15:16:03;5.50;3.75;0.00
65973;PMS5003;52729;54.906;73.316;2022-08-01T15:19:04;2.00;1.00;0.00
65973;PMS5003;52729;54.906;73.316;2022-08-01T15:22:10;1.00;1.00;0.00
65973;PMS5003;52729;54.906;73.316;2022-08-01T15:25:11;13.00;11.00;7.00
65973;PMS5003;52729;54.906;73.316;2022-08-01T15:28:18;6.25;5.00;0.50
65973;PMS5003;52729;54.906;73.316;2022-08-01T15:31:20;2.00;2.00;0.00
65973;PMS5003;52729;54.906;73.316;2022-08-01T15:34:21;2.00;1.00;0.00
65973;PMS5003;52729;54.906;73.316;2022-08-01T15:37:23;1.00;0.00;0.00
65973;PMS5003;52729;54.906;73.316;2022-08-01T15:40:29;0.00;0.00;0.00
65973;PMS5003;52729;54.906;73.316;2022-08-01T15:43:33;0.00;0.00;0.00
65973;PMS5003;52729;54.906;73.316;2022-08-01T15:46:34;0.00;0.00;0.00
65973;PMS5003;52729;54.906;73.316;2022-08-01T15:49:46;1.50;0.75;0.00
65973;PMS5003;52729;54.906;73.316;2022-08-01T15:52:51;1.00;1.00;0.00
65973;PMS5003;52729;54.906;73.316;2022-08-01T15:55:52;1.50;1.00;0.00
65973;PMS5003;52729;54.906;73.316;2022-08-01T15:58:53;0.00;0.00;0.00
65973;PMS5003;52729;54.906;73.316;2022-08-01T16:01:54;0.00;0.00;0.00
65973;PMS5003;52729;54.906;73.316;2022-08-01T16:05:06;1.00;1.00;0.00
65973;PMS5003;52729;54.906;73.316;2022-08-01T16:08:07;0.00;0.00;0.00
65973;PMS5003;52729;54.906;73.316;2022-08-01T16:11:08;0.00;0.00;0.00
65973;PMS5003;52729;54.906;73.316;2022-08-01T16:14:10;0.00;0.00;0.00
65973;PMS5003;52729;54.906;73.316;2022-08-01T16:17:21;0.00;0.00;0.00
65973;PMS5003;52729;54.906;73.316;2022-08-01T16:20:26;0.00;0.00;0.00
65973;PMS5003;52729;54.906;73.316;2022-08-01T16:23:32;0.00;0.00;0.00
65973;PMS5003;52729;54.906;73.316;2022-08-01T16:26:33;0.00;0.00;0.00
65973;PMS5003;52729;54.906;73.316;2022-08-01T16:29:34;1.00;0.00;0.00
65973;PMS5003;52729;54.906;73.316;2022-08-01T16:32:36;1.00;1.00;0.00
65973;PMS5003;52729;54.906;73.316;2022-08-01T16:35:37;1.00;0.00;0.00
65973;PMS5003;52729;54.906;73.316;2022-08-01T16:38:38;0.00;0.00;0.00
65973;PMS5003;52729;54.906;73.316;2022-08-01T16:41:39;0.00;0.00;0.00
65973;PMS5003;52729;54.906;73.316;2022-08-01T16:44:40;0.00;0.00;0.00
65973;PMS5003;52729;54.906;73.316;2022-08-01T16:47:42;0.00;0.00;0.00
65973;PMS5003;52729;54.906;73.316;2022-08-01T16:50:54;0.00;0.00;0.00
65973;PMS5003;52729;54.906;73.316;2022-08-01T16:53:55;0.00;0.00;0.00
65973;PMS5003;52729;54.906;73.316;2022-08-01T16:56:56;0.00;0.00;0.00
65973;PMS5003;52729;54.906;73.316;2022-08-01T16:59:59;0.00;0.00;0.00
65973;PMS5003;52729;54.906;73.316;2022-08-01T17:03:01;0.00;0.00;0.00
65973;PMS5003;52729;54.906;73.316;2022-08-01T17:06:02;0.00;0.00;0.00
65973;PMS5003;52729;54.906;73.316;2022-08-01T17:09:04;0.00;0.00;0.00
65973;PMS5003;52729;54.906;73.316;2022-08-01T17:12:05;0.00;0.00;0.00
65973;PMS5003;52729;54.906;73.316;2022-08-01T17:15:07;0.00;0.00;0.00
65973;PMS5003;52729;54.906;73.316;2022-08-01T17:18:08;0.00;0.00;0.00
65973;PMS5003;52729;54.906;73.316;2022-08-01T17:21:14;2.00;1.00;0.00
65973;PMS5003;52729;54.906;73.316;2022-08-01T17:24:15;0.00;0.00;0.00
65973;PMS5003;52729;54.906;73.316;2022-08-01T17:27:17;0.00;0.00;0.00
65973;PMS5003;52729;54.906;73.316;2022-08-01T17:30:19;0.00;0.00;0.00
65973;PMS5003;52729;54.906;73.316;2022-08-01T17:33:25;0.00;0.00;0.00
65973;PMS5003;52729;54.906;73.316;2022-08-01T17:36:26;1.00;0.00;0.00
65973;PMS5003;52729;54.906;73.316;2022-08-01T17:39:28;1.00;1.00;0.00
65973;PMS5003;52729;54.906;73.316;2022-08-01T17:42:34;1.00;1.00;0.00
65973;PMS5003;52729;54.906;73.316;2022-08-01T17:45:35;0.00;0.00;0.00
65973;PMS5003;52729;54.906;73.316;2022-08-01T17:48:36;0.00;0.00;0.00
65973;PMS5003;52729;54.906;73.316;2022-08-01T17:51:42;0.00;0.00;0.00
65973;PMS5003;52729;54.906;73.316;2022-08-01T17:54:43;0.00;0.00;0.00
65973;PMS5003;52729;54.906;73.316;2022-08-01T17:57:49;0.00;0.00;0.00
65973;PMS5003;52729;54.906;73.316;2022-08-01T18:00:55;0.00;0.00;0.00
65973;PMS5003;52729;54.906;73.316;2022-08-01T18:03:56;0.00;0.00;0.00